Time;durP1;ratioP1;P1;durP2;ratioP2;P2;SDS_P1;SDS_P2;PMS_P1;PMS_P2;Temp;Humidity;BMP_temperature;BMP_pressure;BME280_temperature;BME280_humidity;BME280_pressure;Samples;Min_cycle;Max_cycle;Signal;HPM_P1;HPM_P2
2021/09/03 00:00:14;;;;;;;36.23;14.87;;;;;;;11.35;100.00;102017.97;5034824;28;20025;-72
2021/09/03 00:02:40;;;;;;;28.17;14.57;;;;;;;11.32;100.00;102007.56;5034566;28;20086;-73
2021/09/03 00:05:09;;;;;;;26.47;12.87;;;;;;;11.34;100.00;102009.13;5051728;28;20021;-73
2021/09/03 00:07:35;;;;;;;34.78;13.95;;;;;;;11.45;100.00;101993.94;5034339;28;20438;-73
2021/09/03 00:10:02;;;;;;;27.00;13.70;;;;;;;11.33;100.00;101999.41;5034164;28;20032;-73
2021/09/03 00:12:27;;;;;;;34.60;14.85;;;;;;;11.35;100.00;101988.56;5034341;28;20422;-73
2021/09/03 00:14:53;;;;;;;41.33;17.57;;;;;;;11.40;100.00;101995.22;5051678;28;20025;-73
2021/09/03 00:17:18;;;;;;;27.73;13.77;;;;;;;11.37;100.00;101998.13;5051654;28;20033;-72
2021/09/03 00:19:43;;;;;;;37.67;16.17;;;;;;;11.29;100.00;101984.63;5017477;28;20080;-73
2021/09/03 00:22:09;;;;;;;28.50;15.50;;;;;;;11.28;100.00;101992.78;5051730;28;20060;-73
2021/09/03 00:24:34;;;;;;;40.10;18.80;;;;;;;11.43;100.00;101979.88;5051279;28;20107;-73
2021/09/03 00:27:00;;;;;;;39.00;18.70;;;;;;;11.43;100.00;101977.19;5051435;28;20096;-72
2021/09/03 00:29:25;;;;;;;32.53;16.40;;;;;;;11.40;100.00;101981.84;5051478;28;20028;-72
2021/09/03 00:31:50;;;;;;;39.07;17.03;;;;;;;11.48;100.00;101970.44;5033858;28;20039;-72
2021/09/03 00:34:16;;;;;;;39.70;17.23;;;;;;;11.53;100.00;101970.88;5051133;28;20036;-72
2021/09/03 00:36:45;;;;;;;41.33;16.97;;;;;;;11.51;100.00;101961.28;5051031;28;20043;-72
2021/09/03 00:39:11;;;;;;;34.65;16.10;;;;;;;11.52;100.00;101955.81;5051184;28;20047;-72
2021/09/03 00:41:36;;;;;;;32.63;16.57;;;;;;;11.63;100.00;101952.16;5033369;28;20029;-73
2021/09/03 00:44:02;;;;;;;34.37;18.77;;;;;;;11.61;100.00;101952.31;5033652;28;20762;-73
2021/09/03 00:46:27;;;;;;;37.90;17.60;;;;;;;11.53;100.00;101944.13;5033134;28;20061;-72
2021/09/03 00:48:52;;;;;;;35.77;17.80;;;;;;;11.62;100.00;101942.44;5033676;28;20052;-72
2021/09/03 00:51:18;;;;;;;38.90;19.43;;;;;;;11.57;100.00;101945.53;5050536;28;20582;-72
2021/09/03 00:53:44;;;;;;;39.80;17.43;;;;;;;11.58;100.00;101946.38;5033505;28;20296;-72
2021/09/03 00:56:09;;;;;;;36.25;17.13;;;;;;;11.57;100.00;101944.69;5032863;28;20402;-72
2021/09/03 00:58:34;;;;;;;40.33;17.30;;;;;;;11.50;100.00;101940.91;5050092;28;20041;-72
2021/09/03 01:01:00;;;;;;;36.80;17.20;;;;;;;11.45;100.00;101941.31;5032057;28;20047;-72
2021/09/03 01:03:25;;;;;;;42.97;18.87;;;;;;;11.46;100.00;101936.81;5049603;28;20113;-72
2021/09/03 01:05:51;;;;;;;44.40;18.50;;;;;;;11.34;100.00;101928.91;5031766;28;20096;-72
2021/09/03 01:08:17;;;;;;;39.40;17.40;;;;;;;11.37;100.00;101925.94;5031946;28;20040;-72
2021/09/03 01:10:42;;;;;;;49.87;21.40;;;;;;;11.34;100.00;101928.91;5049618;28;20094;-72
2021/09/03 01:13:07;;;;;;;39.90;18.50;;;;;;;11.30;100.00;101930.16;5030909;28;20033;-72
2021/09/03 01:15:33;;;;;;;36.37;19.00;;;;;;;11.33;100.00;101921.88;5050474;28;20049;-72
2021/09/03 01:17:58;;;;;;;53.37;19.93;;;;;;;11.50;100.00;101922.19;5016221;28;20043;-72
2021/09/03 01:20:23;;;;;;;40.53;19.10;;;;;;;11.52;100.00;101912.16;5050456;28;20049;-72
2021/09/03 01:22:49;;;;;;;40.07;18.90;;;;;;;11.48;100.00;101908.09;5050034;28;20037;-72
2021/09/03 01:25:15;;;;;;;39.27;18.73;;;;;;;11.39;100.00;101910.59;5032228;28;20028;-72
2021/09/03 01:27:41;;;;;;;37.80;18.83;;;;;;;11.48;100.00;101903.59;5032135;28;20513;-73
2021/09/03 01:30:08;;;;;;;;;;;;;;;11.56;100.00;101902.88;5050779;28;20029;-72
2021/09/03 01:32:34;;;;;;;40.35;19.13;;;;;;;11.62;100.00;101903.16;5032762;28;20015;-72
2021/09/03 01:34:59;;;;;;;46.13;19.17;;;;;;;11.76;100.00;101904.56;5050182;28;20479;-72
2021/09/03 01:37:24;;;;;;;41.03;18.90;;;;;;;11.84;100.00;101910.03;5032310;28;20036;-72
2021/09/03 01:39:50;;;;;;;39.23;18.30;;;;;;;11.83;100.00;101905.69;5050099;28;20028;-73
2021/09/03 01:42:15;;;;;;;38.63;17.10;;;;;;;11.85;100.00;101908.22;5032575;28;20044;-72
2021/09/03 01:44:40;;;;;;;41.47;18.27;;;;;;;11.82;100.00;101901.34;5049828;28;20470;-73
2021/09/03 01:47:06;;;;;;;37.50;16.90;;;;;;;11.77;100.00;101903.56;5032141;28;20347;-72
2021/09/03 01:49:31;;;;;;;46.47;20.30;;;;;;;11.74;100.00;101903.84;5032341;28;20373;-72
2021/09/03 01:51:56;;;;;;;42.00;18.10;;;;;;;11.59;100.00;101902.63;5049497;28;20366;-72
2021/09/03 01:54:22;;;;;;;40.53;17.63;;;;;;;11.55;100.00;101902.03;5049660;28;20331;-72
2021/09/03 01:56:47;;;;;;;43.07;17.67;;;;;;;11.47;100.00;101888.53;5049598;28;20373;-72
2021/09/03 01:59:12;;;;;;;38.77;16.83;;;;;;;11.43;100.00;101895.16;5049668;28;20424;-72
2021/09/03 02:01:38;;;;;;;51.97;19.63;;;;;;;11.43;100.00;101894.31;5049541;28;20209;-72
2021/09/03 02:04:03;;;;;;;48.20;19.43;;;;;;;11.52;100.00;101888.09;5049224;28;20128;-72
2021/09/03 02:06:28;;;;;;;51.78;19.55;;;;;;;11.52;100.00;101888.09;5049399;28;20051;-73
2021/09/03 02:08:54;;;;;;;41.93;18.37;;;;;;;11.58;100.00;101874.16;5031944;28;20063;-72
2021/09/03 02:11:19;;;;;;;47.07;19.87;;;;;;;11.62;100.00;101878.25;5048736;28;20421;-72
2021/09/03 02:13:44;;;;;;;41.00;18.83;;;;;;;11.69;100.00;101881.22;5049513;28;20576;-72
2021/09/03 02:16:10;;;;;;;45.33;18.67;;;;;;;11.79;100.00;101874.84;5048854;28;20060;-72
2021/09/03 02:18:35;;;;;;;35.30;18.10;;;;;;;11.82;100.00;101874.56;5049374;28;20037;-72
2021/09/03 02:21:01;;;;;;;45.80;19.20;;;;;;;11.90;100.00;101863.19;5049150;28;20051;-72
2021/09/03 02:23:26;;;;;;;47.67;18.55;;;;;;;11.92;100.00;101863.03;5049335;28;20029;-72
2021/09/03 02:25:52;;;;;;;49.80;20.17;;;;;;;12.03;100.00;101850.34;5048661;28;20048;-72
2021/09/03 02:28:18;;;;;;;48.10;18.63;;;;;;;12.09;100.00;101858.78;5049229;28;20045;-72
2021/09/03 02:30:44;;;;;;;38.95;18.42;;;;;;;12.16;100.00;101854.53;5048918;28;20063;-72
2021/09/03 02:33:09;;;;;;;41.50;17.63;;;;;;;12.18;100.00;101858.75;5048885;28;20185;-73
2021/09/03 02:35:35;;;;;;;42.40;18.23;;;;;;;12.23;100.00;101856.47;5048778;28;20572;-72
2021/09/03 02:38:00;;;;;;;41.10;17.40;;;;;;;12.24;100.00;101846.59;5031415;28;20035;-72
2021/09/03 02:40:26;;;;;;;46.57;18.50;;;;;;;12.26;100.00;101844.59;5048986;28;20052;-72
2021/09/03 02:42:52;;;;;;;49.08;16.80;;;;;;;12.36;100.00;101840.06;5031174;28;20060;-72
2021/09/03 02:45:17;;;;;;;45.10;16.13;;;;;;;12.45;100.00;101843.69;5031305;28;20119;-72
2021/09/03 02:47:43;;;;;;;35.43;16.00;;;;;;;12.48;100.00;101834.50;5014385;28;20116;-72
2021/09/03 02:50:09;;;;;;;33.90;15.17;;;;;;;12.49;100.00;101823.66;5031359;28;20083;-73
2021/09/03 02:52:34;;;;;;;34.85;15.57;;;;;;;12.70;100.00;101835.97;5048159;28;20049;-72
2021/09/03 02:54:59;;;;;;;35.73;15.93;;;;;;;12.71;100.00;101834.94;5048737;28;20033;-72
2021/09/03 02:57:24;;;;;;;43.63;15.93;;;;;;;12.70;100.00;101820.72;5048215;28;20051;-72
2021/09/03 02:59:50;;;;;;;32.07;12.93;;;;;;;12.86;100.00;101830.78;5048664;28;20037;-72
2021/09/03 03:02:15;;;;;;;38.40;15.37;;;;;;;12.85;100.00;101824.59;5048335;28;20036;-72
2021/09/03 03:04:40;;;;;;;33.80;13.57;;;;;;;12.89;100.00;101825.09;5030771;28;20044;-72
2021/09/03 03:07:06;;;;;;;34.57;15.20;;;;;;;12.92;100.00;101818.59;5048062;28;20538;-72
2021/09/03 03:09:31;;;;;;;43.33;15.73;;;;;;;12.90;100.00;101808.06;5048549;28;20479;-72
2021/09/03 03:11:57;;;;;;;37.80;15.20;;;;;;;12.96;100.00;101820.81;5048376;28;20033;-72
2021/09/03 03:14:32;;;;;;;32.97;14.93;;;;;;;12.97;100.00;101811.81;5030571;28;20036;-72
2021/09/03 03:16:58;;;;;;;36.40;13.80;;;;;;;12.92;100.00;101806.03;5030533;28;20041;-73
2021/09/03 03:19:24;;;;;;;35.35;13.73;;;;;;;12.93;100.00;101806.91;5030731;28;20063;-72
2021/09/03 03:21:49;;;;;;;30.52;13.45;;;;;;;13.00;100.00;101807.97;5048239;28;20375;-72
2021/09/03 03:24:15;;;;;;;36.80;13.47;;;;;;;13.05;100.00;101797.63;5047928;28;20044;-72
2021/09/03 03:26:41;;;;;;;44.25;14.70;;;;;;;13.05;100.00;101798.47;5047937;28;20275;-72
2021/09/03 03:29:06;;;;;;;31.83;12.97;;;;;;;12.99;100.00;101801.75;5048148;28;20029;-72
2021/09/03 03:31:32;;;;;;;36.50;12.43;;;;;;;13.02;100.00;101790.75;5048248;28;20601;-72
2021/09/03 03:34:01;;;;;;;41.70;14.40;;;;;;;12.96;100.00;101790.50;5048037;28;20025;-72
2021/09/03 03:36:27;;;;;;;43.67;14.07;;;;;;;13.05;100.00;101784.22;5047942;28;20043;-72
2021/09/03 03:38:52;;;;;;;32.23;12.97;;;;;;;13.02;100.00;101782.69;5048062;28;20041;-72
2021/09/03 03:41:18;;;;;;;42.30;14.70;;;;;;;12.98;100.00;101784.00;5048060;28;20031;-72
2021/09/03 03:43:43;;;;;;;39.70;14.47;;;;;;;12.92;100.00;101786.44;5048163;28;20199;-72
2021/09/03 03:46:08;;;;;;;39.17;14.87;;;;;;;12.98;100.00;101784.00;5047470;28;20068;-72
2021/09/03 03:48:34;;;;;;;30.77;13.83;;;;;;;12.98;100.00;101781.31;5048266;28;20445;-72
2021/09/03 03:51:00;;;;;;;36.58;14.88;;;;;;;13.00;100.00;101786.53;5047797;28;20348;-72
2021/09/03 03:53:25;;;;;;;34.70;13.93;;;;;;;12.96;100.00;101777.09;5030135;28;20045;-72
2021/09/03 03:55:50;;;;;;;34.27;14.07;;;;;;;12.96;100.00;101780.63;5047514;28;20275;-72
2021/09/03 03:58:17;;;;;;;36.33;14.63;;;;;;;12.94;100.00;101773.72;5030588;28;20048;-72
2021/09/03 04:00:42;;;;;;;;;;;;;;;12.93;100.00;101778.25;5030678;28;20033;-72
2021/09/03 04:03:08;;;;;;;50.58;17.65;;;;;;;13.01;100.00;101780.16;5047963;28;20050;-72
2021/09/03 04:05:33;;;;;;;33.50;14.47;;;;;;;13.00;100.00;101775.81;5047519;28;20051;-72
2021/09/03 04:07:58;;;;;;;44.77;14.53;;;;;;;13.02;100.00;101777.34;5047686;28;20041;-72
2021/09/03 04:10:24;;;;;;;47.87;16.97;;;;;;;12.99;100.00;101777.63;5047854;28;20025;-72
2021/09/03 04:12:50;;;;;;;45.93;15.67;;;;;;;13.01;100.00;101789.03;5030320;28;20485;-72
2021/09/03 04:15:16;;;;;;;40.35;13.95;;;;;;;12.99;100.00;101782.16;5047729;28;20064;-72
2021/09/03 04:17:41;;;;;;;39.55;14.38;;;;;;;13.03;100.00;101779.00;5029811;28;20072;-72
2021/09/03 04:20:07;;;;;;;34.20;14.43;;;;;;;13.05;100.00;101781.56;5047694;28;20076;-72
2021/09/03 04:22:32;;;;;;;35.05;14.05;;;;;;;13.10;100.00;101777.41;5029888;28;20045;-72
2021/09/03 04:24:57;;;;;;;62.87;16.77;;;;;;;13.07;100.00;101777.72;5030147;28;20034;-72
2021/09/03 04:27:23;;;;;;;31.00;13.33;;;;;;;13.07;100.00;101768.84;5047377;28;20044;-72
2021/09/03 04:29:48;;;;;;;34.97;15.17;;;;;;;13.12;100.00;101777.25;5030097;28;20041;-72
2021/09/03 04:32:13;;;;;;;34.10;13.63;;;;;;;13.10;100.00;101774.72;5029944;28;20049;-72
2021/09/03 04:34:39;;;;;;;37.20;14.10;;;;;;;13.06;100.00;101764.44;5049826;28;20051;-73
2021/09/03 04:37:06;;;;;;;38.90;14.17;;;;;;;13.02;100.00;101763.94;5050772;28;20072;-72
2021/09/03 04:39:31;;;;;;;37.95;14.52;;;;;;;12.97;100.00;101760.00;5033829;28;20025;-72
2021/09/03 04:41:57;;;;;;;40.90;14.75;;;;;;;12.95;100.00;101768.22;5050950;28;20103;-72
2021/09/03 04:44:22;;;;;;;32.90;15.03;;;;;;;12.94;100.00;101771.88;5051069;28;20045;-72
2021/09/03 04:46:47;;;;;;;36.97;12.43;;;;;;;13.04;100.00;101761.09;5050949;28;20029;-72
2021/09/03 04:49:13;;;;;;;35.43;12.73;;;;;;;13.02;100.00;101755.91;5050915;28;20041;-72
2021/09/03 04:51:38;;;;;;;32.67;14.60;;;;;;;13.06;100.00;101770.69;5033141;28;20102;-72
2021/09/03 04:54:03;;;;;;;34.63;14.40;;;;;;;13.04;100.00;101769.13;5016932;28;20036;-72
2021/09/03 04:56:29;;;;;;;38.60;15.07;;;;;;;13.05;100.00;101760.09;5050878;28;20537;-72
2021/09/03 04:58:54;;;;;;;40.27;15.57;;;;;;;13.12;100.00;101765.69;5033169;28;20373;-72
2021/09/03 05:01:19;;;;;;;42.27;14.67;;;;;;;13.13;100.00;101753.97;5050942;28;20033;-72
2021/09/03 05:03:45;;;;;;;35.60;13.77;;;;;;;13.12;100.00;101752.28;5033018;28;20068;-72
2021/09/03 05:06:10;;;;;;;33.67;14.33;;;;;;;13.10;100.00;101745.22;5050423;28;20076;-72
2021/09/03 05:08:36;;;;;;;41.58;14.07;;;;;;;13.13;100.00;101752.13;5033028;28;20033;-72
2021/09/03 05:11:01;;;;;;;31.57;12.83;;;;;;;13.26;100.00;101743.69;5033349;28;20041;-72
2021/09/03 05:13:26;;;;;;;33.37;14.77;;;;;;;13.20;100.00;101736.25;5050350;28;20048;-72
2021/09/03 05:15:53;;;;;;;35.77;13.47;;;;;;;13.19;100.00;101742.63;5050333;28;20029;-72
2021/09/03 05:18:18;;;;;;;33.63;14.18;;;;;;;13.24;100.00;101748.34;5032970;28;20430;-72
2021/09/03 05:20:44;;;;;;;39.53;14.05;;;;;;;13.19;100.00;101742.63;5050258;28;20060;-72
2021/09/03 05:23:09;;;;;;;32.30;12.87;;;;;;;13.27;100.00;101738.22;5050464;28;20035;-72
2021/09/03 05:25:35;;;;;;;36.73;13.60;;;;;;;13.29;100.00;101740.72;5050128;28;20120;-72
2021/09/03 05:28:00;;;;;;;29.70;13.50;;;;;;;13.23;100.00;101728.75;5050205;28;20041;-72
2021/09/03 05:30:25;;;;;;;29.50;13.00;;;;;;;13.28;100.00;101744.41;5016081;28;20112;-72
2021/09/03 05:32:52;;;;;;;25.10;12.47;;;;;;;13.32;100.00;101729.66;5050084;28;20028;-72
2021/09/03 05:35:18;;;;;;;20.13;12.18;;;;;;;13.44;100.00;101731.13;5050022;28;20473;-72
2021/09/03 05:37:43;;;;;;;23.97;12.47;;;;;;;13.38;100.00;101728.22;5050099;28;20028;-72
2021/09/03 05:40:09;;;;;;;32.80;13.17;;;;;;;13.35;100.00;101737.41;5032481;28;20040;-71
2021/09/03 05:42:34;;;;;;;26.55;12.35;;;;;;;13.38;100.00;101739.78;5050138;28;20663;-72
2021/09/03 05:45:00;;;;;;;27.47;11.33;;;;;;;13.50;100.00;101729.63;5049111;28;20041;-72
2021/09/03 05:47:25;;;;;;;26.63;12.67;;;;;;;13.67;99.27;101734.13;5049108;28;20032;-72
2021/09/03 05:49:50;;;;;;;25.10;12.97;;;;;;;13.70;99.81;101739.16;5050118;28;20128;-72
2021/09/03 05:52:15;;;;;;;27.47;13.30;;;;;;;13.81;99.18;101729.13;5031616;28;20112;-72
2021/09/03 05:54:41;;;;;;;23.87;12.47;;;;;;;13.79;98.25;101733.81;5049861;28;20048;-72
2021/09/03 05:57:06;;;;;;;22.50;10.97;;;;;;;13.96;98.20;101721.34;5031566;28;20087;-72
2021/09/03 05:59:32;;;;;;;23.73;10.63;;;;;;;13.94;96.64;101711.59;5048651;28;20044;-73
2021/09/03 06:01:58;;;;;;;31.30;12.15;;;;;;;13.87;96.45;101721.28;5030746;28;20025;-73
2021/09/03 06:04:23;;;;;;;23.23;11.30;;;;;;;13.97;96.78;101714.97;5048785;28;20130;-72
2021/09/03 06:06:48;;;;;;;31.10;12.03;;;;;;;13.79;96.59;101734.69;5048370;28;20048;-72
2021/09/03 06:09:14;;;;;;;31.37;12.17;;;;;;;13.72;97.12;101731.78;5048686;28;20041;-73
2021/09/03 06:11:39;;;;;;;22.87;11.47;;;;;;;13.87;96.09;101732.03;5048172;28;20047;-72
2021/09/03 06:14:05;;;;;;;21.67;11.67;;;;;;;13.77;96.07;101731.31;5048282;28;20040;-73
2021/09/03 06:16:31;;;;;;;21.48;10.60;;;;;;;14.03;96.00;101733.13;5048258;28;20029;-73
2021/09/03 06:18:56;;;;;;;33.05;13.00;;;;;;;13.93;95.98;101723.34;5048416;28;20045;-72
2021/09/03 06:21:22;;;;;;;27.17;12.23;;;;;;;14.19;96.08;101727.81;5048289;28;20078;-73
2021/09/03 06:23:48;;;;;;;25.40;12.05;;;;;;;14.15;94.22;101716.53;5048076;28;20060;-72
2021/09/03 06:26:13;;;;;;;22.92;10.75;;;;;;;13.91;94.43;101730.72;5048183;28;20424;-72
2021/09/03 06:28:39;;;;;;;28.13;11.00;;;;;;;14.08;94.86;101731.63;5030421;28;20052;-73
2021/09/03 06:31:04;;;;;;;25.47;13.30;;;;;;;14.08;94.75;101731.63;5030666;28;20036;-72
2021/09/03 06:33:29;;;;;;;23.30;12.27;;;;;;;14.13;93.80;101740.03;5030315;28;20040;-73
2021/09/03 06:35:55;;;;;;;28.50;12.63;;;;;;;14.19;93.67;101743.06;5047926;28;20040;-73
2021/09/03 06:38:20;;;;;;;23.67;11.50;;;;;;;14.10;93.61;101740.38;5047844;28;20075;-73
2021/09/03 06:40:45;;;;;;;25.00;11.93;;;;;;;14.04;93.40;101734.78;5030593;28;20033;-73
2021/09/03 06:43:11;;;;;;;27.57;11.27;;;;;;;14.26;93.21;101736.91;5030108;28;20052;-73
2021/09/03 06:45:36;;;;;;;21.27;9.77;;;;;;;14.18;92.83;101727.97;5030210;28;20410;-73
2021/09/03 06:48:01;;;;;;;23.00;10.03;;;;;;;14.16;92.31;101728.13;5030028;28;20053;-73
2021/09/03 06:50:27;;;;;;;20.93;10.30;;;;;;;14.32;92.74;101733.53;5030175;28;20042;-73
2021/09/03 06:52:52;;;;;;;24.93;10.27;;;;;;;14.22;93.10;101730.16;5047353;28;20033;-73
2021/09/03 06:55:18;;;;;;;34.40;11.13;;;;;;;14.51;92.19;101737.78;5047314;28;20526;-73
2021/09/03 06:57:43;;;;;;;19.25;10.27;;;;;;;14.38;92.33;101736.63;5047204;28;20453;-73
2021/09/03 07:00:10;;;;;;;22.90;9.53;;;;;;;14.46;91.96;101729.41;5029868;28;20048;-73
2021/09/03 07:02:36;;;;;;;18.23;9.50;;;;;;;14.57;92.80;101730.97;5047513;28;20040;-73
2021/09/03 07:05:02;;;;;;;19.15;8.68;;;;;;;14.44;91.50;101730.56;5047066;28;20020;-73
2021/09/03 07:07:27;;;;;;;23.23;9.75;;;;;;;14.29;90.63;101717.78;5029581;28;20052;-72
2021/09/03 07:09:54;;;;;;;23.03;7.70;;;;;;;14.33;90.69;101710.25;5030928;28;20981;-72
2021/09/03 07:12:20;;;;;;;19.15;8.10;;;;;;;14.66;89.60;101721.94;5014564;28;20047;-72
2021/09/03 07:14:45;;;;;;;20.52;7.80;;;;;;;14.93;89.02;101728.00;5031084;28;20369;-72
2021/09/03 07:17:11;;;;;;;14.90;6.77;;;;;;;14.82;88.63;101717.56;5047795;28;20033;-72
2021/09/03 07:19:36;;;;;;;16.67;6.20;;;;;;;15.07;88.58;101707.66;5047970;28;20040;-72
2021/09/03 07:22:03;;;;;;;17.17;7.37;;;;;;;15.29;87.03;101703.44;5048113;28;20033;-72
2021/09/03 07:24:30;;;;;;;15.45;5.95;;;;;;;15.47;86.88;101712.16;5030826;28;20048;-72
2021/09/03 07:26:55;;;;;;;;;;;;;;;15.91;84.22;101700.94;5014570;28;20070;-72
2021/09/03 07:29:21;;;;;;;;;;;;;;;16.38;81.61;101702.72;5048957;28;19999;-72
2021/09/03 07:31:46;;;;;;;16.87;6.40;;;;;;;16.35;81.79;101711.19;5048166;28;20716;-72
2021/09/03 07:34:11;;;;;;;11.80;5.23;;;;;;;16.73;81.25;101703.19;5030688;28;20029;-72
2021/09/03 07:36:37;;;;;;;17.90;6.00;;;;;;;16.58;81.78;101699.59;5013385;28;20037;-72
2021/09/03 07:39:03;;;;;;;14.88;6.03;;;;;;;16.51;81.41;101686.00;5012725;28;20093;-72
2021/09/03 07:41:28;;;;;;;19.63;6.13;;;;;;;16.85;80.96;101690.16;5046080;28;20033;-72
2021/09/03 07:43:54;;;;;;;18.37;6.57;;;;;;;17.37;78.72;101697.44;5046711;28;20052;-72
2021/09/03 07:46:19;;;;;;;18.47;6.47;;;;;;;17.77;76.61;101689.06;5046356;28;20037;-72
2021/09/03 07:48:44;;;;;;;14.83;5.37;;;;;;;18.25;75.01;101700.31;5046500;28;20653;-72
2021/09/03 07:51:10;;;;;;;16.40;7.60;;;;;;;17.50;75.84;101696.81;5046083;28;20501;-72
2021/09/03 07:53:35;;;;;;;12.90;6.87;;;;;;;18.08;72.82;101703.22;5047720;28;20037;-72
2021/09/03 07:56:03;;;;;;;12.87;6.90;;;;;;;18.41;74.14;101691.97;5030376;28;20103;-73
2021/09/03 07:58:28;;;;;;;25.10;7.70;;;;;;;18.20;74.21;101700.06;5030459;28;20056;-72
2021/09/03 08:00:53;;;;;;;15.47;5.73;;;;;;;17.89;74.66;101703.81;5030785;28;20089;-72
2021/09/03 08:03:19;;;;;;;18.90;7.63;;;;;;;18.37;72.13;101701.47;5047921;28;20033;-72
2021/09/03 08:05:44;;;;;;;17.20;7.37;;;;;;;18.49;71.53;101708.06;5029934;28;20037;-72
2021/09/03 08:08:09;;;;;;;12.80;6.83;;;;;;;18.96;70.65;101695.88;5047683;28;20037;-72
2021/09/03 08:10:35;;;;;;;19.77;7.70;;;;;;;19.44;71.63;101697.06;5052129;28;20445;-72
2021/09/03 08:13:02;;;;;;;16.58;5.88;;;;;;;19.02;71.38;101698.84;5051912;28;20040;-73
2021/09/03 08:15:29;;;;;;;19.83;6.72;;;;;;;18.19;73.82;101704.63;5034185;28;20043;-72
2021/09/03 08:17:54;;;;;;;15.00;6.72;;;;;;;18.05;74.37;101687.41;5051675;28;20048;-73
2021/09/03 08:20:20;;;;;;;15.93;6.70;;;;;;;18.62;73.19;101698.44;5051356;28;20025;-72
2021/09/03 08:22:48;;;;;;;14.67;7.90;;;;;;;19.29;71.87;101706.13;5051607;28;20033;-72
2021/09/03 08:25:14;;;;;;;14.90;7.20;;;;;;;19.35;69.41;101694.50;5051311;28;20052;-72
2021/09/03 08:27:39;;;;;;;15.65;6.78;;;;;;;19.86;68.23;101695.28;5051438;28;20029;-72
2021/09/03 08:30:05;;;;;;;13.80;6.73;;;;;;;20.15;66.40;101689.53;5051308;28;20073;-72
2021/09/03 08:32:30;;;;;;;15.00;7.32;;;;;;;18.73;72.43;101696.06;5033884;28;20040;-72
2021/09/03 08:34:56;;;;;;;14.20;7.20;;;;;;;18.57;70.89;101690.91;5050924;28;20064;-72
2021/09/03 08:37:22;;;;;;;12.68;7.40;;;;;;;19.34;70.65;101698.25;5051147;28;20041;-72
2021/09/03 08:39:49;;;;;;;24.20;7.63;;;;;;;19.58;69.06;101693.41;5051168;28;20130;-72
2021/09/03 08:42:14;;;;;;;22.02;10.95;;;;;;;19.09;70.27;101688.91;5051168;28;20025;-72
2021/09/03 08:44:40;;;;;;;21.57;8.07;;;;;;;19.47;68.56;101681.25;5050487;28;20052;-72
2021/09/03 08:47:08;;;;;;;19.60;8.75;;;;;;;19.11;69.64;101679.56;5047652;28;20469;-72
2021/09/03 08:49:34;;;;;;;21.60;8.55;;;;;;;19.53;70.16;101690.47;5047730;28;20410;-72
2021/09/03 08:51:59;;;;;;;15.30;9.13;;;;;;;19.57;68.56;101686.31;5029840;28;20186;-72
2021/09/03 08:54:24;;;;;;;21.13;9.83;;;;;;;19.89;69.54;101690.25;5030406;28;20116;-72
2021/09/03 08:56:50;;;;;;;22.83;9.37;;;;;;;20.02;68.60;101692.22;5013610;28;20048;-72
2021/09/03 08:59:15;;;;;;;17.83;9.57;;;;;;;20.42;66.11;101684.22;5047614;28;20462;-73
2021/09/03 09:01:41;;;;;;;19.30;9.23;;;;;;;20.83;64.91;101683.25;5049621;28;20041;-72
2021/09/03 09:04:15;;;;;;;19.47;9.30;;;;;;;21.06;64.96;101686.38;5049661;28;20520;-72
2021/09/03 09:07:01;;;;;;;16.60;9.15;;;;;;;20.67;65.95;101692.63;5031728;28;20049;-72
2021/09/03 09:09:34;;;;;;;18.42;10.00;;;;;;;20.50;67.51;101691.31;5049637;28;20041;-72
2021/09/03 09:12:04;;;;;;;19.05;9.93;;;;;;;20.15;64.88;101683.28;5049363;28;20472;-72
2021/09/03 09:14:30;;;;;;;19.70;9.88;;;;;;;20.62;65.95;101685.09;5031790;28;20045;-72
2021/09/03 09:17:02;;;;;;;16.75;9.93;;;;;;;21.37;63.25;101686.78;5031682;28;20021;-72
2021/09/03 09:19:28;;;;;;;18.40;9.82;;;;;;;21.26;62.84;101685.56;5015477;28;20390;-72
2021/09/03 09:22:00;;;;;;;18.23;11.00;;;;;;;21.29;63.93;101687.84;5049137;28;20051;-72
2021/09/03 09:24:25;;;;;;;18.65;11.00;;;;;;;20.77;65.09;101684.09;5031835;28;20045;-72
2021/09/03 09:26:54;;;;;;;16.10;9.77;;;;;;;21.85;64.08;101694.63;5048878;28;20032;-72
2021/09/03 09:29:24;;;;;;;22.10;10.80;;;;;;;21.96;61.03;101691.25;5015223;28;20060;-72
2021/09/03 09:31:57;;;;;;;20.67;11.10;;;;;;;22.28;59.79;101689.44;5048973;28;20407;-72
2021/09/03 09:34:25;;;;;;;20.42;10.60;;;;;;;21.74;60.73;101681.72;5049371;28;20355;-72
2021/09/03 09:36:52;;;;;;;17.95;10.70;;;;;;;21.40;62.91;101684.50;5031272;28;20031;-72
2021/09/03 09:39:19;;;;;;;20.75;12.38;;;;;;;22.45;60.65;101687.06;5031667;28;20044;-72
2021/09/03 09:41:46;;;;;;;19.42;10.98;;;;;;;22.51;60.99;101679.91;5048737;28;20139;-72
2021/09/03 09:44:12;;;;;;;19.95;11.43;;;;;;;22.82;59.44;101678.22;5048795;28;20492;-72
2021/09/03 09:46:37;;;;;;;18.30;10.52;;;;;;;22.88;59.36;101678.16;5048741;28;20029;-72
2021/09/03 09:49:09;;;;;;;24.58;11.88;;;;;;;22.45;61.22;101673.47;5049114;28;20128;-72
2021/09/03 09:51:40;;;;;;;18.88;11.02;;;;;;;23.06;60.72;101679.31;5048029;28;20124;-72
2021/09/03 09:54:14;;;;;;;22.25;11.15;;;;;;;22.88;58.69;101669.19;5048481;28;20112;-72
2021/09/03 09:56:49;;;;;;;17.23;10.43;;;;;;;23.45;58.23;101667.19;5031380;28;20117;-72
2021/09/03 09:59:15;;;;;;;20.85;11.43;;;;;;;23.14;58.13;101666.25;5030963;28;20041;-72
2021/09/03 10:01:41;;;;;;;;;;;;;;;23.68;57.78;101665.69;5049079;28;20119;-72
2021/09/03 10:04:09;;;;;;;23.00;11.80;;;;;;;22.33;61.55;101664.31;5049469;28;19999;-72
2021/09/03 10:06:36;;;;;;;16.60;10.77;;;;;;;23.20;59.10;101658.22;5031919;28;20083;-72
2021/09/03 10:09:05;;;;;;;20.77;11.45;;;;;;;23.78;57.05;101657.81;5031678;28;20424;-72
2021/09/03 10:11:30;;;;;;;21.77;11.40;;;;;;;23.75;55.91;101648.22;5048499;28;20021;-72
2021/09/03 10:13:56;;;;;;;18.53;11.27;;;;;;;23.84;58.07;101653.38;5048209;28;20481;-72
2021/09/03 10:16:21;;;;;;;18.90;10.20;;;;;;;23.90;55.48;101653.25;5048236;28;20458;-72
2021/09/03 10:18:49;;;;;;;17.10;11.57;;;;;;;23.43;57.21;101639.31;5048132;28;20056;-72
2021/09/03 10:21:15;;;;;;;21.92;10.82;;;;;;;23.17;56.85;101640.44;5048143;28;20083;-72
2021/09/03 10:23:57;;;;;;;17.15;9.73;;;;;;;23.97;55.88;101645.81;5030337;28;20072;-72
2021/09/03 10:26:25;;;;;;;17.35;9.80;;;;;;;23.95;55.84;101644.41;5030290;28;20120;-72
2021/09/03 10:29:16;;;;;;;15.70;9.52;;;;;;;23.82;55.56;101633.69;5048387;28;20214;-72
2021/09/03 10:32:10;;;;;;;18.55;10.30;;;;;;;22.66;60.59;101633.31;5029953;28;20137;-72
2021/09/03 10:34:38;;;;;;;16.40;9.63;;;;;;;23.14;56.80;101625.38;5047830;28;20365;-72
2021/09/03 10:37:05;;;;;;;18.38;10.50;;;;;;;23.99;55.04;101626.50;5047620;28;20052;-72
2021/09/03 10:39:51;;;;;;;20.98;10.05;;;;;;;25.03;53.94;101629.75;5030309;28;20454;-72
2021/09/03 10:45:32;;;;;;;18.02;10.65;;;;;;;25.05;52.92;101622.16;5047516;28;20478;-72
2021/09/03 10:48:03;;;;;;;15.25;10.13;;;;;;;24.93;54.93;101617.75;5047629;28;20199;-72
2021/09/03 10:50:41;;;;;;;15.02;9.60;;;;;;;24.63;54.18;101624.13;5030112;28;20116;-72
2021/09/03 10:53:10;;;;;;;16.92;10.77;;;;;;;24.81;55.25;101625.94;5047469;28;20043;-72
2021/09/03 10:56:09;;;;;;;14.38;9.25;;;;;;;25.09;53.59;101625.22;5047250;28;20041;-72
2021/09/03 10:58:42;;;;;;;16.90;9.65;;;;;;;24.61;55.05;101612.63;5030121;28;20045;-72
2021/09/03 11:01:10;;;;;;;27.08;11.27;;;;;;;24.84;53.73;101620.84;5029858;28;20053;-72
2021/09/03 11:03:45;;;;;;;22.92;10.55;;;;;;;24.08;56.87;101616.13;5029261;28;20050;-72
2021/09/03 11:06:14;;;;;;;18.05;10.55;;;;;;;24.13;54.00;101617.09;5028225;28;20045;-72
2021/09/03 11:08:41;;;;;;;21.50;10.55;;;;;;;24.10;55.46;101620.28;5029900;28;20504;-72